Jersey City, NJ (07097)

2:17 AM EDT on July 30, 2016 (GMT -0400)
The Heights | | Change Station

Elev 128 ft 40.74 °N, 74.05 °W | Updated 52 seconds ago

Clear
Clear
75.6 °F
Feels Like 75 °F
N
0.0
Wind Variable Wind from SSE
Gusts 0.0 mph

Today
High -- | Low -- °F
--% Chance of Precip.
Yesterday
High -- | Low -- °F
Precip. -- in
Pressure 29.93 in
Visibility 8.0 miles
Clouds Clear
Heat Index 75 °F
Dew Point 72 °F
Humidity 90%
Rainfall 0.00 in
Snow Depth Not available.
5:51 AM 8:13 PM
Waning Crescent, 16% visible
METAR KNYC 300551Z AUTO 00000KT 8SM CLR 25/21 A2996 RMK AO2 SLP134 T02500206 10267 20250 50004 $
Pressure 29.93 in
Visibility 8.0 miles
Clouds Clear
Heat Index 75 °F
Dew Point 72 °F
Humidity 90%
Rainfall 0.00 in
Snow Depth Not available.
5:51 AM 8:13 PM
Waning Crescent, 16% visible
METAR KNYC 300551Z AUTO 00000KT 8SM CLR 25/21 A2996 RMK AO2 SLP134 T02500206 10267 20250 50004 $

10-Day Weather Forecast

Almanac

Astronomy

Jul. 30, 2016 Rise Set
Actual Time
Civil Twilight
Nautical Twilight
Astronomical Twilight
Moon
Length of Visible Light
Length of Day
Tomorrow will be .
, % of the Moon is Illuminated

Today's Extremes

State Highs State Lows

Community

WunderPhotos

Upload Photos

1,928,508 photos uploaded!

WunderBlog® & News

Nearby

Air Quality

  Air Quality AQ Index Pollutant
Not available.

Snow Depth

Station Depth Elevation

Earthquake Activity

City Distance Mag. Time & Date
Minimum magnitude displayed is 2.5.

Coastal Water Temperatures

Place Temperature

Stations

Nearby Weather Stations

Station Location Temp. Windchill Dew Point Humidity Wind Precip. Elev Updated Type
                   

Watches & Warnings

There are currently no watches in effect.